CheckWX is a tool to help pilots better visualize weather data.  It is not intended as a substitute for an official pre-flight weather briefing.

08:12:22 UTC

VTPB METAR
Phetchabun Airport
Thailand
Current

1 hour ago

VTPB 150700Z VRB02KT 9999 SCT030 33/19 Q1011 NOSIG
Observed
Nov-15 @ 07:00 UTC
Wind
  • Variable at 2 KTS
Visibility
10,000+ meters
Flight Rules
VFR
Cloud Levels
  • Scattered at 3,000' AGL
Temperature
33°C / 91°F
Dewpoint
19°C / 66°F
Heat Index
34°C / 94°F
Humidity
44%
Altimeter
29.85" Hg
Pressure
1010.92 hPa
Previous

2 hours ago

VTPB 150600Z VRB02KT 9999 FEW030 32/19 Q1012 NOSIG
Observed
Nov-15 @ 06:00 UTC
Wind
  • Variable at 2 KTS
Visibility
10,000+ meters
Flight Rules
VFR
Cloud Levels
  • Few at 3,000' AGL
Temperature
32°C / 90°F
Dewpoint
19°C / 66°F
Heat Index
34°C / 93°F
Humidity
46%
Altimeter
29.88" Hg
Pressure
1011.92 hPa
Previous

3 hours ago

VTPB 150500Z 00000KT 9999 FEW030 31/18 Q1013 NOSIG
Observed
Nov-15 @ 05:00 UTC
Visibility
10,000+ meters
Flight Rules
VFR
Cloud Levels
  • Few at 3,000' AGL
Temperature
31°C / 88°F
Dewpoint
18°C / 64°F
Heat Index
32°C / 90°F
Humidity
46%
Altimeter
29.91" Hg
Pressure
1012.92 hPa